createdAt,value
2023-04-06T00:00:29.317Z,12.60
2023-04-06T00:02:49.238Z,11.63
2023-04-06T00:05:09.491Z,13.48
2023-04-06T00:07:30.351Z,11.07
2023-04-06T00:09:50.474Z,11.82
2023-04-06T00:12:10.487Z,12.88
2023-04-06T00:14:30.814Z,14.38
2023-04-06T00:16:51.424Z,15.05
2023-04-06T00:19:11.761Z,15.30
2023-04-06T00:21:32.552Z,15.10
2023-04-06T00:23:53.018Z,15.38
2023-04-06T00:26:13.054Z,14.57
2023-04-06T00:28:33.151Z,14.10
2023-04-06T00:30:56.458Z,12.98
2023-04-06T00:33:16.947Z,15.15
2023-04-06T00:35:37.314Z,14.85
2023-04-06T00:37:57.928Z,12.63
2023-04-06T00:40:18.113Z,14.40
2023-04-06T00:42:38.224Z,14.43
2023-04-06T00:44:59.425Z,14.60
2023-04-06T00:47:19.532Z,15.13
2023-04-06T00:49:39.444Z,12.90
2023-04-06T00:51:59.780Z,12.98
2023-04-06T00:54:19.984Z,14.00
2023-04-06T00:56:40.009Z,13.88
2023-04-06T00:59:00.142Z,14.55
2023-04-06T01:01:20.607Z,12.73
2023-04-06T01:03:42.582Z,11.52
2023-04-06T01:06:02.764Z,14.40
2023-04-06T01:08:22.954Z,13.32
2023-04-06T01:10:43.201Z,14.00
2023-04-06T01:13:03.278Z,13.90
2023-04-06T01:15:23.754Z,14.88
2023-04-06T01:17:44.206Z,14.45
2023-04-06T01:20:04.444Z,14.85
2023-04-06T01:22:27.283Z,14.88
2023-04-06T01:24:47.601Z,12.82
2023-04-06T01:27:07.628Z,14.70
2023-04-06T01:29:27.893Z,14.32
2023-04-06T01:31:48.149Z,13.10
2023-04-06T01:34:08.531Z,12.88
2023-04-06T01:36:28.745Z,13.40
2023-04-06T01:38:48.926Z,14.30
2023-04-06T01:41:09.674Z,14.77
2023-04-06T01:43:29.961Z,13.10
2023-04-06T01:45:50.166Z,14.05
2023-04-06T01:48:10.426Z,13.30
2023-04-06T01:50:30.778Z,13.93
2023-04-06T01:52:50.911Z,12.77
2023-04-06T01:55:10.868Z,12.85
2023-04-06T01:57:31.207Z,13.13
2023-04-06T01:59:51.311Z,13.15
2023-04-06T02:02:13.195Z,13.02
2023-04-06T02:04:33.574Z,14.32
2023-04-06T02:06:53.735Z,13.85
2023-04-06T02:09:15.995Z,15.18
2023-04-06T02:11:36.273Z,15.90
2023-04-06T02:13:56.980Z,13.48
2023-04-06T02:16:17.019Z,13.82
2023-04-06T02:18:37.110Z,12.82
2023-04-06T02:20:57.431Z,14.55
2023-04-06T02:23:17.562Z,13.65
2023-04-06T02:25:37.959Z,14.15
2023-04-06T02:27:58.062Z,13.98
2023-04-06T02:30:18.213Z,16.50
2023-04-06T02:32:38.467Z,14.40
2023-04-06T02:34:58.429Z,14.95
2023-04-06T02:37:18.742Z,13.13
2023-04-06T02:39:39.012Z,11.38
2023-04-06T02:41:59.033Z,14.05
2023-04-06T02:44:19.971Z,13.40
2023-04-06T02:46:40.509Z,15.10
2023-04-06T02:49:00.917Z,13.02
2023-04-06T02:51:21.719Z,14.23
2023-04-06T02:53:42.073Z,14.93
2023-04-06T02:56:02.193Z,19.60
2023-04-06T02:58:22.417Z,27.52
2023-04-06T03:00:42.727Z,27.38
2023-04-06T03:03:02.909Z,15.65
2023-04-06T03:05:23.031Z,14.38
2023-04-06T03:07:43.123Z,13.00
2023-04-06T03:10:03.829Z,17.73
2023-04-06T03:12:24.128Z,15.13
2023-04-06T03:14:44.818Z,17.40
2023-04-06T03:17:05.157Z,30.30
2023-04-06T03:19:25.306Z,30.98
2023-04-06T03:21:46.052Z,34.67
2023-04-06T03:24:06.925Z,28.13
2023-04-06T03:26:27.450Z,27.55
2023-04-06T03:28:47.793Z,33.75
2023-04-06T03:31:07.867Z,32.00
2023-04-06T03:33:27.912Z,33.05
2023-04-06T03:35:48.019Z,30.27
2023-04-06T03:38:08.487Z,17.90
2023-04-06T03:40:28.695Z,14.20
2023-04-06T03:42:48.593Z,15.60
2023-04-06T03:45:09.043Z,14.60
2023-04-06T03:47:29.469Z,16.60
2023-04-06T03:49:49.584Z,19.77
2023-04-06T03:52:09.775Z,21.88
2023-04-06T03:54:29.825Z,18.67
2023-04-06T03:56:50.126Z,16.00
2023-04-06T03:59:10.579Z,14.68
2023-04-06T04:01:31.196Z,16.52
2023-04-06T04:03:52.140Z,14.35
2023-04-06T04:06:12.375Z,13.77
2023-04-06T04:08:32.537Z,22.45
2023-04-06T04:10:52.662Z,18.88
2023-04-06T04:13:12.768Z,19.80
2023-04-06T04:15:32.953Z,16.90
2023-04-06T04:17:53.055Z,24.75
2023-04-06T04:20:13.219Z,27.20
2023-04-06T04:22:33.245Z,25.80
2023-04-06T04:24:53.297Z,19.08
2023-04-06T04:27:13.678Z,18.23
2023-04-06T04:29:33.892Z,24.85
2023-04-06T04:31:54.301Z,20.38
2023-04-06T04:34:15.593Z,25.60
2023-04-06T04:36:36.300Z,20.33
2023-04-06T04:38:56.479Z,34.95
2023-04-06T04:41:16.506Z,21.10
2023-04-06T04:43:36.814Z,24.33
2023-04-06T04:45:56.772Z,17.02
2023-04-06T04:48:16.958Z,16.90
2023-04-06T04:50:37.017Z,23.10
2023-04-06T04:52:57.388Z,18.70
2023-04-06T04:55:18.009Z,21.30
2023-04-06T04:57:38.542Z,20.08
2023-04-06T04:59:58.582Z,20.92
2023-04-06T05:02:19.084Z,29.17
2023-04-06T05:04:39.594Z,19.80
2023-04-06T05:07:03.697Z,19.70
2023-04-06T05:09:23.506Z,24.40
2023-04-06T05:11:43.979Z,17.88
2023-04-06T05:14:04.167Z,18.05
2023-04-06T05:16:24.218Z,19.55
2023-04-06T05:18:44.448Z,20.20
2023-04-06T05:21:04.663Z,29.63
2023-04-06T05:23:24.932Z,44.83
2023-04-06T05:25:45.144Z,42.05
2023-04-06T05:28:05.714Z,40.38
2023-04-06T05:30:26.181Z,41.45
2023-04-06T05:32:46.333Z,41.33
2023-04-06T05:35:06.725Z,38.22
2023-04-06T05:37:26.858Z,34.60
2023-04-06T05:39:47.113Z,30.27
2023-04-06T05:42:07.178Z,37.35
2023-04-06T05:44:27.426Z,29.92
2023-04-06T05:46:47.511Z,31.90
2023-04-06T05:49:07.818Z,21.50
2023-04-06T05:51:28.439Z,21.33
2023-04-06T05:53:48.379Z,32.13
2023-04-06T05:56:08.580Z,39.78
2023-04-06T05:58:28.934Z,22.77
2023-04-06T06:00:49.990Z,32.35
2023-04-06T06:03:11.047Z,34.60
2023-04-06T06:05:31.254Z,38.20
2023-04-06T06:07:51.553Z,24.88
2023-04-06T06:10:11.752Z,23.33
2023-04-06T06:12:32.127Z,20.38
2023-04-06T06:14:52.135Z,16.08
2023-04-06T06:17:12.436Z,16.83
2023-04-06T06:19:32.619Z,15.88
2023-04-06T06:21:52.662Z,19.02
2023-04-06T06:24:12.985Z,17.90
2023-04-06T06:26:33.326Z,18.75
2023-04-06T06:28:53.713Z,16.05
2023-04-06T06:31:13.880Z,16.67
2023-04-06T06:33:34.138Z,14.07
2023-04-06T06:35:54.262Z,14.48
2023-04-06T06:38:14.829Z,16.98
2023-04-06T06:40:35.014Z,18.55
2023-04-06T06:42:55.510Z,17.95
2023-04-06T06:45:15.974Z,16.85
2023-04-06T06:47:36.411Z,17.83
2023-04-06T06:49:56.380Z,17.00
2023-04-06T06:52:16.802Z,18.02
2023-04-06T06:54:37.101Z,17.30
2023-04-06T06:56:57.268Z,16.27
2023-04-06T06:59:17.617Z,14.15
2023-04-06T07:01:38.174Z,14.35
2023-04-06T07:04:01.157Z,15.18
2023-04-06T07:06:21.468Z,13.45
2023-04-06T07:08:41.539Z,12.48
2023-04-06T07:11:01.926Z,11.00
2023-04-06T07:13:23.452Z,10.88
2023-04-06T07:15:43.472Z,13.25
2023-04-06T07:18:03.833Z,11.95
2023-04-06T07:20:24.598Z,12.48
2023-04-06T07:22:45.324Z,37.15
2023-04-06T07:25:05.999Z,17.23
2023-04-06T07:27:26.324Z,12.70
2023-04-06T07:29:46.528Z,10.40
2023-04-06T07:32:06.730Z,11.52
2023-04-06T07:34:27.289Z,17.55
2023-04-06T07:36:47.584Z,23.98
2023-04-06T07:39:08.411Z,10.73
2023-04-06T07:41:28.686Z,15.80
2023-04-06T07:43:49.164Z,11.90
2023-04-06T07:46:09.660Z,15.13
2023-04-06T07:48:29.984Z,8.90
2023-04-06T07:50:50.847Z,11.65
2023-04-06T07:53:11.295Z,7.78
2023-04-06T07:55:31.690Z,7.88
2023-04-06T07:57:51.613Z,6.60
2023-04-06T08:00:12.323Z,7.05
2023-04-06T08:02:33.115Z,7.13
2023-04-06T08:04:53.447Z,7.22
2023-04-06T08:07:14.082Z,6.47
2023-04-06T08:09:34.366Z,5.43
2023-04-06T08:11:54.592Z,5.10
2023-04-06T08:14:15.622Z,5.13
2023-04-06T08:16:36.228Z,5.72
2023-04-06T08:18:56.328Z,4.57
2023-04-06T08:21:16.775Z,4.40
2023-04-06T08:23:36.754Z,4.85
2023-04-06T08:25:57.039Z,5.30
2023-04-06T08:28:17.209Z,5.18
2023-04-06T08:30:37.630Z,4.97
2023-04-06T08:32:58.099Z,5.05
2023-04-06T08:35:18.454Z,5.75
2023-04-06T08:37:38.993Z,4.65
2023-04-06T08:39:59.525Z,5.85
2023-04-06T08:42:23.124Z,4.93
2023-04-06T08:44:43.197Z,4.35
2023-04-06T08:47:05.750Z,5.55
2023-04-06T08:49:26.391Z,5.18
2023-04-06T08:51:47.816Z,5.40
2023-04-06T08:54:08.452Z,4.70
2023-04-06T08:56:29.782Z,4.40
2023-04-06T08:58:50.177Z,4.82
2023-04-06T09:01:13.255Z,6.32
2023-04-06T09:03:34.499Z,7.90
2023-04-06T09:05:54.752Z,4.90
2023-04-06T09:08:15.164Z,4.75
2023-04-06T09:10:35.484Z,5.03
2023-04-06T09:13:03.765Z,4.90
2023-04-06T09:15:24.882Z,4.78
2023-04-06T09:17:46.696Z,5.40
2023-04-06T09:20:07.421Z,5.25
2023-04-06T09:22:35.983Z,6.72
2023-04-06T09:24:56.102Z,4.47
2023-04-06T09:27:16.372Z,4.50
2023-04-06T09:29:37.194Z,4.63
2023-04-06T09:32:07.296Z,4.65
2023-04-06T09:34:27.322Z,5.30
2023-04-06T09:36:47.662Z,3.85
2023-04-06T09:39:08.010Z,8.45
2023-04-06T09:41:29.312Z,4.57
2023-04-06T09:43:50.499Z,7.93
2023-04-06T09:46:10.868Z,4.50
2023-04-06T09:48:32.348Z,5.55
2023-04-06T09:50:55.582Z,7.78
2023-04-06T09:53:16.230Z,4.03
2023-04-06T09:55:39.844Z,4.78
2023-04-06T09:58:06.443Z,5.63
2023-04-06T10:00:26.604Z,7.28
2023-04-06T10:02:50.449Z,6.97
2023-04-06T10:05:14.091Z,4.75
2023-04-06T10:07:37.160Z,4.72
2023-04-06T10:10:02.398Z,3.92
2023-04-06T10:12:22.754Z,3.92
2023-04-06T10:14:43.819Z,4.78
2023-04-06T10:17:04.674Z,4.45
2023-04-06T10:19:27.108Z,4.68
2023-04-06T10:21:49.791Z,3.92
2023-04-06T10:24:11.222Z,4.50
2023-04-06T10:26:31.849Z,3.47
2023-04-06T10:28:52.532Z,4.50
2023-04-06T10:31:12.802Z,3.35
2023-04-06T10:33:33.050Z,5.10
2023-04-06T10:35:53.120Z,4.13
2023-04-06T10:38:21.248Z,3.55
2023-04-06T10:40:43.313Z,3.50
2023-04-06T10:43:13.677Z,4.07
2023-04-06T10:45:34.631Z,3.55
2023-04-06T10:47:56.314Z,3.13
2023-04-06T10:50:20.264Z,2.83
2023-04-06T10:52:40.704Z,3.50
2023-04-06T10:55:00.979Z,3.13
2023-04-06T10:57:29.298Z,3.88
2023-04-06T10:59:49.373Z,3.40
2023-04-06T11:02:09.558Z,3.53
2023-04-06T11:04:30.584Z,2.97
2023-04-06T11:06:51.546Z,4.03
2023-04-06T11:09:11.694Z,3.03
2023-04-06T11:11:31.928Z,3.67
2023-04-06T11:13:56.515Z,3.53
2023-04-06T11:16:17.788Z,3.80
2023-04-06T11:18:38.568Z,2.17
2023-04-06T11:20:59.166Z,3.20
2023-04-06T11:23:26.083Z,2.55
2023-04-06T11:25:51.832Z,3.40
2023-04-06T11:28:12.318Z,2.95
2023-04-06T11:30:32.372Z,2.53
2023-04-06T11:32:52.709Z,2.55
2023-04-06T11:35:23.003Z,2.45
2023-04-06T11:37:44.212Z,2.03
2023-04-06T11:40:04.859Z,1.85
2023-04-06T11:42:26.215Z,2.33
2023-04-06T11:44:46.425Z,2.00
2023-04-06T11:47:08.216Z,1.70
2023-04-06T11:49:29.266Z,2.22
2023-04-06T11:51:49.419Z,2.60
2023-04-06T11:54:09.411Z,1.73
2023-04-06T11:56:30.735Z,2.20
2023-04-06T11:58:51.199Z,2.83
2023-04-06T12:01:11.447Z,2.15
2023-04-06T12:03:31.326Z,2.58
2023-04-06T12:05:51.773Z,1.63
2023-04-06T12:08:11.879Z,1.73
2023-04-06T12:10:32.113Z,1.88
2023-04-06T12:12:52.373Z,1.80
2023-04-06T12:15:12.716Z,2.08
2023-04-06T12:17:32.895Z,2.00
2023-04-06T12:19:52.837Z,1.70
2023-04-06T12:22:13.251Z,1.70
2023-04-06T12:24:33.516Z,1.60
2023-04-06T12:27:06.509Z,1.52
2023-04-06T12:29:30.085Z,1.63
2023-04-06T12:31:51.397Z,1.45
2023-04-06T12:34:11.679Z,1.52
2023-04-06T12:36:32.637Z,1.50
2023-04-06T12:38:53.235Z,1.70
2023-04-06T12:41:13.579Z,1.77
2023-04-06T12:43:33.763Z,1.45
2023-04-06T12:45:53.779Z,1.80
2023-04-06T12:48:14.003Z,1.50
2023-04-06T12:50:34.151Z,1.30
2023-04-06T12:52:54.269Z,1.60
2023-04-06T12:55:14.292Z,32.50
2023-04-06T12:57:35.046Z,85.70
2023-04-06T12:59:55.264Z,2.92
2023-04-06T13:02:16.280Z,1.65
2023-04-06T13:04:36.534Z,1.42
2023-04-06T13:06:56.885Z,2.53
2023-04-06T13:09:16.967Z,1.80
2023-04-06T13:11:37.521Z,1.98
2023-04-06T13:13:57.684Z,1.63
2023-04-06T13:16:18.021Z,1.45
2023-04-06T13:18:38.840Z,1.65
2023-04-06T13:21:00.126Z,1.60
2023-04-06T13:23:20.231Z,2.25
2023-04-06T13:25:40.410Z,1.80
2023-04-06T13:28:00.844Z,2.15
2023-04-06T13:30:21.627Z,1.70
2023-04-06T13:32:41.938Z,1.90
2023-04-06T13:35:03.897Z,1.60
2023-04-06T13:37:24.127Z,1.30
2023-04-06T13:39:44.704Z,1.30
2023-04-06T13:42:05.303Z,1.73
2023-04-06T13:44:25.466Z,1.30
2023-04-06T13:46:45.668Z,1.20
2023-04-06T13:49:06.330Z,2.25
2023-04-06T13:51:27.297Z,1.40
2023-04-06T13:53:47.429Z,1.73
2023-04-06T13:56:08.113Z,1.98
2023-04-06T13:58:28.339Z,3.15
2023-04-06T14:00:48.560Z,2.10
2023-04-06T14:03:08.975Z,1.40
2023-04-06T14:05:33.057Z,4.07
2023-04-06T14:07:53.376Z,2.33
2023-04-06T14:10:16.601Z,1.92
2023-04-06T14:12:36.781Z,3.92
2023-04-06T14:14:57.041Z,1.85
2023-04-06T14:17:17.108Z,1.70
2023-04-06T14:19:37.911Z,2.17
2023-04-06T14:21:58.069Z,1.63
2023-04-06T14:24:19.374Z,1.58
2023-04-06T14:26:40.334Z,1.30
2023-04-06T14:29:01.463Z,1.30
2023-04-06T14:31:21.788Z,1.90
2023-04-06T14:33:42.419Z,2.08
2023-04-06T14:36:06.279Z,1.60
2023-04-06T14:38:26.908Z,1.20
2023-04-06T14:40:46.939Z,2.80
2023-04-06T14:43:06.859Z,3.00
2023-04-06T14:45:26.821Z,3.35
2023-04-06T14:47:47.043Z,1.63
2023-04-06T14:50:07.998Z,1.77
2023-04-06T14:52:29.999Z,3.15
2023-04-06T14:54:51.364Z,1.45
2023-04-06T14:57:11.515Z,2.15
2023-04-06T14:59:33.822Z,1.55
2023-04-06T15:01:55.014Z,1.92
2023-04-06T15:04:15.432Z,2.78
2023-04-06T15:06:35.805Z,1.48
2023-04-06T15:08:55.787Z,2.45
2023-04-06T15:11:16.047Z,2.17
2023-04-06T15:13:36.536Z,2.13
2023-04-06T15:15:56.626Z,7.40
2023-04-06T15:18:16.779Z,2.97
2023-04-06T15:20:36.933Z,2.00
2023-04-06T15:22:57.123Z,2.15
2023-04-06T15:25:17.600Z,1.80
2023-04-06T15:27:37.631Z,1.42
2023-04-06T15:29:58.870Z,2.15
2023-04-06T15:32:19.015Z,1.65
2023-04-06T15:34:39.725Z,1.50
2023-04-06T15:37:05.243Z,3.15
2023-04-06T15:39:25.942Z,5.93
2023-04-06T15:41:46.190Z,3.90
2023-04-06T15:44:06.345Z,1.50
2023-04-06T15:46:29.323Z,1.70
2023-04-06T15:48:49.641Z,1.58
2023-04-06T15:51:09.989Z,2.20
2023-04-06T15:53:30.295Z,11.40
2023-04-06T15:55:50.664Z,6.13
2023-04-06T15:58:10.647Z,6.25
2023-04-06T16:00:30.761Z,6.80
2023-04-06T16:02:50.972Z,8.02
2023-04-06T16:05:11.070Z,2.25
2023-04-06T16:07:32.304Z,2.67
2023-04-06T16:09:52.778Z,3.35
2023-04-06T16:12:12.746Z,2.35
2023-04-06T16:14:32.798Z,68.35
2023-04-06T16:16:56.323Z,7.18
2023-04-06T16:19:16.882Z,3.53
2023-04-06T16:21:37.437Z,3.40
2023-04-06T16:23:59.229Z,1.75
2023-04-06T16:26:21.866Z,1.58
2023-04-06T16:28:42.564Z,2.67
2023-04-06T16:31:02.910Z,2.38
2023-04-06T16:33:23.808Z,2.13
2023-04-06T16:35:44.907Z,2.17
2023-04-06T16:38:05.845Z,2.92
2023-04-06T16:40:25.929Z,2.75
2023-04-06T16:42:46.007Z,2.58
2023-04-06T16:45:06.801Z,7.68
2023-04-06T16:47:27.736Z,2.15
2023-04-06T16:49:47.929Z,2.75
2023-04-06T16:52:08.405Z,2.33
2023-04-06T16:54:28.793Z,2.35
2023-04-06T16:56:48.968Z,3.13
2023-04-06T16:59:09.539Z,2.95
2023-04-06T17:01:30.170Z,3.55
2023-04-06T17:03:51.019Z,3.20
2023-04-06T17:06:11.533Z,3.10
2023-04-06T17:08:31.765Z,2.45
2023-04-06T17:11:02.590Z,4.85
2023-04-06T17:13:24.240Z,3.05
2023-04-06T17:15:44.767Z,5.05
2023-04-06T17:18:05.058Z,4.40
2023-04-06T17:20:25.078Z,4.45
2023-04-06T17:22:48.709Z,4.40
2023-04-06T17:25:09.516Z,4.60
2023-04-06T17:27:29.721Z,4.25
2023-04-06T17:29:49.959Z,7.40
2023-04-06T17:32:11.495Z,3.90
2023-04-06T17:34:31.471Z,5.32
2023-04-06T17:36:51.675Z,5.63
2023-04-06T17:39:11.915Z,5.93
2023-04-06T17:41:33.645Z,4.38
2023-04-06T17:43:54.040Z,4.65
2023-04-06T17:46:14.335Z,4.05
2023-04-06T17:48:34.452Z,5.05
2023-04-06T17:50:55.035Z,4.78
2023-04-06T17:53:18.140Z,4.35
2023-04-06T17:55:38.618Z,5.43
2023-04-06T17:57:58.618Z,4.60
2023-04-06T18:00:23.554Z,4.50
2023-04-06T18:02:43.789Z,4.85
2023-04-06T18:05:03.914Z,5.40
2023-04-06T18:07:24.188Z,4.75
2023-04-06T18:09:44.889Z,7.03
2023-04-06T18:12:05.185Z,4.68
2023-04-06T18:14:25.819Z,5.15
2023-04-06T18:16:46.806Z,7.32
2023-04-06T18:19:07.096Z,5.07
2023-04-06T18:21:27.846Z,5.82
2023-04-06T18:23:48.759Z,5.85
2023-04-06T18:26:14.990Z,5.68
2023-04-06T18:28:35.037Z,8.82
2023-04-06T18:30:55.292Z,49.47
2023-04-06T18:33:15.335Z,31.95
2023-04-06T18:35:35.516Z,32.25
2023-04-06T18:37:55.745Z,24.17
2023-04-06T18:40:38.419Z,16.50
2023-04-06T18:42:59.491Z,10.18
2023-04-06T18:45:19.492Z,8.82
2023-04-06T18:47:39.821Z,6.72
2023-04-06T18:50:00.258Z,8.63
2023-04-06T18:52:20.476Z,7.63
2023-04-06T18:54:40.722Z,6.18
2023-04-06T18:57:01.203Z,6.90
2023-04-06T18:59:21.426Z,6.03
2023-04-06T19:01:45.106Z,6.75
2023-04-06T19:04:05.592Z,7.80
2023-04-06T19:06:28.820Z,6.32
2023-04-06T19:08:49.858Z,6.43
2023-04-06T19:11:10.241Z,6.40
2023-04-06T19:13:30.470Z,7.10
2023-04-06T19:15:50.563Z,9.30
2023-04-06T19:18:10.793Z,13.02
2023-04-06T19:20:33.900Z,11.93
2023-04-06T19:25:19.291Z,8.13
2023-04-06T19:27:39.566Z,9.98
2023-04-06T19:29:59.927Z,11.30
2023-04-06T19:32:20.411Z,15.63
2023-04-06T19:34:41.095Z,20.30
2023-04-06T19:37:01.008Z,12.30
2023-04-06T19:39:21.409Z,5.90
2023-04-06T19:41:41.558Z,11.35
2023-04-06T19:44:02.094Z,9.65
2023-04-06T19:46:22.730Z,13.23
2023-04-06T19:48:43.249Z,9.32
2023-04-06T19:51:03.309Z,10.00
2023-04-06T19:53:23.562Z,9.02
2023-04-06T19:55:44.300Z,8.45
2023-04-06T19:58:05.156Z,10.43
2023-04-06T20:00:25.252Z,9.68
2023-04-06T20:02:45.692Z,11.82
2023-04-06T20:05:06.483Z,12.98
2023-04-06T20:07:26.815Z,8.90
2023-04-06T20:09:47.120Z,17.52
2023-04-06T20:12:07.524Z,20.35
2023-04-06T20:14:29.139Z,13.07
2023-04-06T20:16:49.996Z,13.27
2023-04-06T20:19:10.025Z,12.43
2023-04-06T20:21:30.668Z,10.32
2023-04-06T20:23:51.231Z,10.27
2023-04-06T20:26:11.235Z,17.45
2023-04-06T20:28:32.037Z,26.95
2023-04-06T20:30:52.736Z,23.75
2023-04-06T20:33:12.689Z,18.73
2023-04-06T20:35:34.314Z,42.08
2023-04-06T20:37:54.973Z,18.90
2023-04-06T20:40:15.757Z,26.17
2023-04-06T20:42:36.625Z,32.58
2023-04-06T20:44:57.730Z,17.85
2023-04-06T20:47:21.182Z,18.33
2023-04-06T20:49:41.653Z,21.70
2023-04-06T20:52:02.565Z,21.35
2023-04-06T20:54:22.854Z,19.83
2023-04-06T20:56:43.075Z,33.97
2023-04-06T20:59:06.867Z,22.13
2023-04-06T21:01:28.578Z,20.45
2023-04-06T21:03:48.937Z,22.65
2023-04-06T21:06:09.948Z,15.60
2023-04-06T21:08:30.321Z,11.73
2023-04-06T21:10:50.548Z,12.18
2023-04-06T21:13:10.934Z,13.45
2023-04-06T21:15:31.339Z,12.15
2023-04-06T21:17:51.560Z,13.23
2023-04-06T21:20:11.827Z,14.35
2023-04-06T21:22:32.250Z,16.73
2023-04-06T21:24:52.479Z,13.80
2023-04-06T21:27:12.455Z,15.20
2023-04-06T21:29:32.694Z,15.93
2023-04-06T21:31:54.905Z,10.90
2023-04-06T21:34:15.273Z,11.07
2023-04-06T21:36:35.681Z,13.65
2023-04-06T21:38:55.925Z,10.95
2023-04-06T21:41:16.070Z,10.00
2023-04-06T21:43:36.291Z,8.93
2023-04-06T21:45:56.793Z,7.72
2023-04-06T21:48:17.271Z,9.20
2023-04-06T21:50:40.411Z,15.77
2023-04-06T21:55:20.883Z,11.68
2023-04-06T21:57:40.934Z,10.68
2023-04-06T22:00:01.942Z,13.15
2023-04-06T22:02:22.308Z,13.32
2023-04-06T22:04:42.935Z,12.43
2023-04-06T22:07:03.411Z,13.63
2023-04-06T22:09:23.688Z,12.13
2023-04-06T22:11:43.933Z,11.05
2023-04-06T22:14:05.779Z,13.15
2023-04-06T22:16:26.443Z,18.50
2023-04-06T22:18:47.054Z,12.10
2023-04-06T22:21:08.378Z,18.23
2023-04-06T22:23:28.685Z,25.33
2023-04-06T22:25:49.157Z,27.45
2023-04-06T22:28:09.572Z,21.65
2023-04-06T22:30:29.993Z,18.30
2023-04-06T22:32:50.495Z,15.27
2023-04-06T22:35:11.079Z,13.85
2023-04-06T22:37:31.367Z,10.85
2023-04-06T22:39:51.511Z,12.27
2023-04-06T22:42:11.827Z,10.77
2023-04-06T22:44:32.046Z,13.18
2023-04-06T22:46:52.209Z,13.75
2023-04-06T22:49:12.414Z,13.45
2023-04-06T22:51:32.841Z,11.27
2023-04-06T22:53:52.868Z,11.13
2023-04-06T22:56:13.098Z,10.48
2023-04-06T22:58:33.138Z,11.88
2023-04-06T23:00:53.364Z,11.80
2023-04-06T23:03:13.939Z,11.98
2023-04-06T23:05:34.261Z,11.07
2023-04-06T23:07:54.648Z,11.05
2023-04-06T23:10:14.897Z,12.55
2023-04-06T23:12:35.352Z,11.98
2023-04-06T23:14:55.725Z,11.43
2023-04-06T23:17:16.362Z,12.57
2023-04-06T23:19:36.493Z,9.95
2023-04-06T23:21:57.834Z,12.68
2023-04-06T23:24:18.066Z,10.48
2023-04-06T23:26:38.409Z,12.57
2023-04-06T23:28:58.786Z,12.52
2023-04-06T23:31:19.097Z,12.48
2023-04-06T23:33:39.369Z,13.05
2023-04-06T23:35:59.507Z,13.30
2023-04-06T23:38:19.697Z,12.32
2023-04-06T23:40:39.828Z,12.75
2023-04-06T23:42:59.878Z,12.90
2023-04-06T23:45:20.175Z,11.50
2023-04-06T23:47:40.419Z,12.90
2023-04-06T23:50:00.409Z,14.18
2023-04-06T23:52:20.841Z,15.15
2023-04-06T23:54:41.054Z,14.45
2023-04-06T23:57:01.297Z,13.23
2023-04-06T23:59:21.890Z,13.75
